sensor_id;sensor_type;location;lat;lon;timestamp;pressure;altitude;pressure_sealevel;temperature;humidity
47706;BME280;33471;52.104;1.318;2022-09-09T00:01:44;99968.15;;;19.29;53.54
47706;BME280;33471;52.104;1.318;2022-09-09T00:04:20;99961.55;;;19.17;53.26
47706;BME280;33471;52.104;1.318;2022-09-09T00:06:59;99958.63;;;19.85;52.85
47706;BME280;33471;52.104;1.318;2022-09-09T00:09:29;99954.62;;;19.22;53.43
47706;BME280;33471;52.104;1.318;2022-09-09T00:12:02;99955.89;;;18.98;54.87
47706;BME280;33471;52.104;1.318;2022-09-09T00:14:39;99952.66;;;18.45;55.35
47706;BME280;33471;52.104;1.318;2022-09-09T00:17:14;99948.99;;;18.26;55.87
47706;BME280;33471;52.104;1.318;2022-09-09T00:19:52;99950.23;;;18.24;57.14
47706;BME280;33471;52.104;1.318;2022-09-09T00:22:23;99946.13;;;17.69;57.20
47706;BME280;33471;52.104;1.318;2022-09-09T00:24:53;99942.99;;;17.84;57.94
47706;BME280;33471;52.104;1.318;2022-09-09T00:27:27;99944.20;;;17.91;57.20
47706;BME280;33471;52.104;1.318;2022-09-09T00:30:13;99940.73;;;18.47;55.98
47706;BME280;33471;52.104;1.318;2022-09-09T00:32:41;99933.98;;;17.83;56.79
47706;BME280;33471;52.104;1.318;2022-09-09T00:35:17;99928.12;;;18.51;55.76
47706;BME280;33471;52.104;1.318;2022-09-09T00:37:48;99928.41;;;19.00;55.70
47706;BME280;33471;52.104;1.318;2022-09-09T00:40:23;99926.50;;;18.19;56.34
47706;BME280;33471;52.104;1.318;2022-09-09T00:43:00;99928.45;;;18.56;55.58
47706;BME280;33471;52.104;1.318;2022-09-09T00:45:52;99926.87;;;17.93;55.74
47706;BME280;33471;52.104;1.318;2022-09-09T00:48:28;99929.22;;;18.44;55.12
47706;BME280;33471;52.104;1.318;2022-09-09T00:51:04;99924.35;;;18.52;54.71
47706;BME280;33471;52.104;1.318;2022-09-09T00:53:51;99920.82;;;18.86;54.40
47706;BME280;33471;52.104;1.318;2022-09-09T00:56:24;99925.29;;;18.62;54.01
47706;BME280;33471;52.104;1.318;2022-09-09T00:59:05;99926.01;;;18.83;54.50
47706;BME280;33471;52.104;1.318;2022-09-09T01:01:39;99924.90;;;18.99;53.78
47706;BME280;33471;52.104;1.318;2022-09-09T01:04:12;99924.88;;;19.28;53.80
47706;BME280;33471;52.104;1.318;2022-09-09T01:06:40;99923.92;;;19.26;53.64
47706;BME280;33471;52.104;1.318;2022-09-09T01:09:15;99921.26;;;19.02;53.67
47706;BME280;33471;52.104;1.318;2022-09-09T01:11:52;99920.05;;;19.36;53.32
47706;BME280;33471;52.104;1.318;2022-09-09T01:14:32;99918.43;;;19.08;53.27
47706;BME280;33471;52.104;1.318;2022-09-09T01:17:09;99913.82;;;18.39;54.47
47706;BME280;33471;52.104;1.318;2022-09-09T01:19:49;99909.47;;;19.35;53.62
47706;BME280;33471;52.104;1.318;2022-09-09T01:22:28;99910.69;;;18.85;53.57
47706;BME280;33471;52.104;1.318;2022-09-09T01:25:22;99914.40;;;18.78;54.35
47706;BME280;33471;52.104;1.318;2022-09-09T01:27:56;99911.30;;;19.35;53.40
47706;BME280;33471;52.104;1.318;2022-09-09T01:30:26;99910.61;;;19.07;53.83
47706;BME280;33471;52.104;1.318;2022-09-09T01:32:56;99905.53;;;18.77;53.92
47706;BME280;33471;52.104;1.318;2022-09-09T01:35:35;99905.02;;;18.74;54.07
47706;BME280;33471;52.104;1.318;2022-09-09T01:38:03;99902.29;;;18.82;54.28
47706;BME280;33471;52.104;1.318;2022-09-09T01:40:31;99893.81;;;19.22;53.43
47706;BME280;33471;52.104;1.318;2022-09-09T01:42:59;99891.19;;;18.93;54.02
47706;BME280;33471;52.104;1.318;2022-09-09T01:45:26;99886.71;;;18.88;53.71
47706;BME280;33471;52.104;1.318;2022-09-09T01:47:54;99880.53;;;19.06;53.76
47706;BME280;33471;52.104;1.318;2022-09-09T01:50:21;99877.42;;;18.72;53.54
47706;BME280;33471;52.104;1.318;2022-09-09T01:52:51;99871.52;;;19.20;53.42
47706;BME280;33471;52.104;1.318;2022-09-09T01:55:30;99868.36;;;18.88;53.19
47706;BME280;33471;52.104;1.318;2022-09-09T01:58:11;99867.02;;;19.16;53.54
47706;BME280;33471;52.104;1.318;2022-09-09T02:00:48;99862.81;;;18.83;53.35
47706;BME280;33471;52.104;1.318;2022-09-09T02:03:24;99860.46;;;18.37;53.23
47706;BME280;33471;52.104;1.318;2022-09-09T02:05:59;99858.86;;;18.92;53.11
47706;BME280;33471;52.104;1.318;2022-09-09T02:08:35;99852.78;;;19.00;52.98
47706;BME280;33471;52.104;1.318;2022-09-09T02:11:11;99850.97;;;19.04;52.68
47706;BME280;33471;52.104;1.318;2022-09-09T02:13:40;99852.61;;;19.07;52.62
47706;BME280;33471;52.104;1.318;2022-09-09T02:16:11;99847.79;;;19.33;52.49
47706;BME280;33471;52.104;1.318;2022-09-09T02:18:42;99845.26;;;19.05;52.51
47706;BME280;33471;52.104;1.318;2022-09-09T02:21:13;99842.20;;;19.11;52.34
47706;BME280;33471;52.104;1.318;2022-09-09T02:23:42;99844.87;;;19.30;52.35
47706;BME280;33471;52.104;1.318;2022-09-09T02:26:13;99841.31;;;18.98;52.45
47706;BME280;33471;52.104;1.318;2022-09-09T02:28:41;99843.28;;;18.98;52.66
47706;BME280;33471;52.104;1.318;2022-09-09T02:31:08;99842.68;;;19.04;52.61
47706;BME280;33471;52.104;1.318;2022-09-09T02:33:40;99844.41;;;19.37;52.38
47706;BME280;33471;52.104;1.318;2022-09-09T02:36:11;99849.61;;;19.08;53.09
47706;BME280;33471;52.104;1.318;2022-09-09T02:38:42;99847.53;;;19.26;52.46
47706;BME280;33471;52.104;1.318;2022-09-09T02:41:12;99852.89;;;19.07;52.50
47706;BME280;33471;52.104;1.318;2022-09-09T02:43:40;99852.59;;;19.55;52.52
47706;BME280;33471;52.104;1.318;2022-09-09T02:46:19;99853.41;;;19.02;52.71
47706;BME280;33471;52.104;1.318;2022-09-09T02:48:57;99849.56;;;19.25;52.55
47706;BME280;33471;52.104;1.318;2022-09-09T02:51:35;99847.40;;;19.33;52.37
47706;BME280;33471;52.104;1.318;2022-09-09T02:54:09;99845.27;;;19.53;52.41
47706;BME280;33471;52.104;1.318;2022-09-09T02:56:42;99845.26;;;19.42;52.24
47706;BME280;33471;52.104;1.318;2022-09-09T02:59:13;99845.76;;;19.51;52.06
47706;BME280;33471;52.104;1.318;2022-09-09T03:01:41;99845.95;;;19.45;52.08
47706;BME280;33471;52.104;1.318;2022-09-09T03:04:08;99846.01;;;19.46;51.96
47706;BME280;33471;52.104;1.318;2022-09-09T03:06:35;99838.17;;;19.47;51.91
47706;BME280;33471;52.104;1.318;2022-09-09T03:09:02;99832.50;;;19.44;51.94
47706;BME280;33471;52.104;1.318;2022-09-09T03:11:29;99829.81;;;19.10;52.22
47706;BME280;33471;52.104;1.318;2022-09-09T03:13:56;99835.51;;;18.06;53.94
47706;BME280;33471;52.104;1.318;2022-09-09T03:16:24;99836.62;;;18.36;53.39
47706;BME280;33471;52.104;1.318;2022-09-09T03:18:51;99835.37;;;18.66;52.74
47706;BME280;33471;52.104;1.318;2022-09-09T03:21:18;99836.03;;;18.37;52.32
47706;BME280;33471;52.104;1.318;2022-09-09T03:23:46;99834.80;;;19.09;52.16
47706;BME280;33471;52.104;1.318;2022-09-09T03:26:13;99839.23;;;18.55;52.70
47706;BME280;33471;52.104;1.318;2022-09-09T03:28:41;99829.23;;;19.04;52.18
47706;BME280;33471;52.104;1.318;2022-09-09T03:31:08;99832.27;;;18.91;52.56
47706;BME280;33471;52.104;1.318;2022-09-09T03:33:36;99826.03;;;19.22;52.27
47706;BME280;33471;52.104;1.318;2022-09-09T03:36:04;99831.26;;;18.70;52.87
47706;BME280;33471;52.104;1.318;2022-09-09T03:38:32;99829.88;;;18.40;52.96
47706;BME280;33471;52.104;1.318;2022-09-09T03:41:00;99828.16;;;19.01;52.66
47706;BME280;33471;52.104;1.318;2022-09-09T03:43:28;99819.82;;;19.29;52.12
47706;BME280;33471;52.104;1.318;2022-09-09T03:45:56;99819.42;;;19.14;52.38
47706;BME280;33471;52.104;1.318;2022-09-09T03:48:24;99817.76;;;19.13;51.96
47706;BME280;33471;52.104;1.318;2022-09-09T03:50:53;99825.85;;;17.58;55.27
47706;BME280;33471;52.104;1.318;2022-09-09T03:53:21;99823.41;;;17.95;54.19
47706;BME280;33471;52.104;1.318;2022-09-09T03:55:52;99822.20;;;18.52;53.60
47706;BME280;33471;52.104;1.318;2022-09-09T03:58:19;99826.25;;;17.82;55.01
47706;BME280;33471;52.104;1.318;2022-09-09T04:00:54;99821.75;;;18.29;54.12
47706;BME280;33471;52.104;1.318;2022-09-09T04:03:22;99820.98;;;18.07;53.39
47706;BME280;33471;52.104;1.318;2022-09-09T04:05:50;99824.81;;;17.82;55.37
47706;BME280;33471;52.104;1.318;2022-09-09T04:08:18;99827.03;;;17.43;55.50
47706;BME280;33471;52.104;1.318;2022-09-09T04:10:45;99825.49;;;17.62;56.15
47706;BME280;33471;52.104;1.318;2022-09-09T04:13:13;99828.33;;;17.25;56.45
47706;BME280;33471;52.104;1.318;2022-09-09T04:15:42;99831.76;;;18.11;55.28
47706;BME280;33471;52.104;1.318;2022-09-09T04:18:10;99834.92;;;18.18;55.12
47706;BME280;33471;52.104;1.318;2022-09-09T04:20:38;99832.33;;;17.15;57.31
47706;BME280;33471;52.104;1.318;2022-09-09T04:23:05;99830.82;;;18.02;55.26
47706;BME280;33471;52.104;1.318;2022-09-09T04:25:32;99824.18;;;16.23;59.50
47706;BME280;33471;52.104;1.318;2022-09-09T04:28:00;99824.42;;;15.25;62.94
47706;BME280;33471;52.104;1.318;2022-09-09T04:30:27;99827.66;;;15.19;63.49
47706;BME280;33471;52.104;1.318;2022-09-09T04:32:54;99833.36;;;15.46;64.25
47706;BME280;33471;52.104;1.318;2022-09-09T04:35:21;99835.06;;;14.16;66.16
47706;BME280;33471;52.104;1.318;2022-09-09T04:37:48;99834.27;;;16.15;61.32
47706;BME280;33471;52.104;1.318;2022-09-09T04:40:16;99838.38;;;15.13;63.55
47706;BME280;33471;52.104;1.318;2022-09-09T04:42:43;99835.99;;;15.15;64.89
47706;BME280;33471;52.104;1.318;2022-09-09T04:45:11;99830.51;;;15.94;61.89
47706;BME280;33471;52.104;1.318;2022-09-09T04:47:39;99830.31;;;15.89;61.91
47706;BME280;33471;52.104;1.318;2022-09-09T04:50:08;99831.13;;;15.66;62.38
47706;BME280;33471;52.104;1.318;2022-09-09T04:52:35;99835.06;;;16.03;61.72
47706;BME280;33471;52.104;1.318;2022-09-09T04:55:03;99844.83;;;15.22;63.24
47706;BME280;33471;52.104;1.318;2022-09-09T04:57:30;99847.18;;;15.20;63.21
47706;BME280;33471;52.104;1.318;2022-09-09T04:59:57;99848.87;;;15.93;63.25
47706;BME280;33471;52.104;1.318;2022-09-09T05:02:25;99846.70;;;15.51;62.28
47706;BME280;33471;52.104;1.318;2022-09-09T05:04:52;99850.23;;;15.91;61.95
47706;BME280;33471;52.104;1.318;2022-09-09T05:07:19;99845.58;;;14.91;63.76
47706;BME280;33471;52.104;1.318;2022-09-09T05:09:46;99845.81;;;14.29;66.35
47706;BME280;33471;52.104;1.318;2022-09-09T05:12:14;99842.99;;;14.43;66.42
47706;BME280;33471;52.104;1.318;2022-09-09T05:14:41;99838.82;;;15.51;63.87
47706;BME280;33471;52.104;1.318;2022-09-09T05:17:08;99837.48;;;15.95;62.77
47706;BME280;33471;52.104;1.318;2022-09-09T05:19:35;99834.90;;;16.49;60.12
47706;BME280;33471;52.104;1.318;2022-09-09T05:22:03;99830.87;;;14.73;65.72
47706;BME280;33471;52.104;1.318;2022-09-09T05:24:30;99829.71;;;15.48;62.42
47706;BME280;33471;52.104;1.318;2022-09-09T05:26:58;99823.75;;;16.76;60.32
47706;BME280;33471;52.104;1.318;2022-09-09T05:29:25;99822.73;;;15.43;61.86
47706;BME280;33471;52.104;1.318;2022-09-09T05:31:53;99825.81;;;15.09;63.76
47706;BME280;33471;52.104;1.318;2022-09-09T05:34:20;99824.51;;;15.77;61.00
47706;BME280;33471;52.104;1.318;2022-09-09T05:36:47;99828.40;;;15.74;62.23
47706;BME280;33471;52.104;1.318;2022-09-09T05:39:15;99832.35;;;15.31;62.98
47706;BME280;33471;52.104;1.318;2022-09-09T05:41:42;99829.54;;;14.93;64.84
47706;BME280;33471;52.104;1.318;2022-09-09T05:44:09;99832.30;;;15.18;64.40
47706;BME280;33471;52.104;1.318;2022-09-09T05:46:37;99829.76;;;16.98;59.02
47706;BME280;33471;52.104;1.318;2022-09-09T05:49:04;99834.84;;;16.66;59.76
47706;BME280;33471;52.104;1.318;2022-09-09T05:51:32;99837.24;;;17.27;58.41
47706;BME280;33471;52.104;1.318;2022-09-09T05:53:59;99849.57;;;15.67;61.98
47706;BME280;33471;52.104;1.318;2022-09-09T05:56:28;99845.74;;;16.62;59.32
47706;BME280;33471;52.104;1.318;2022-09-09T05:58:56;99850.06;;;16.41;60.29
47706;BME280;33471;52.104;1.318;2022-09-09T06:01:25;99849.44;;;16.01;60.30
47706;BME280;33471;52.104;1.318;2022-09-09T06:03:53;99851.87;;;15.70;61.17
47706;BME280;33471;52.104;1.318;2022-09-09T06:06:21;99857.43;;;15.30;61.61
47706;BME280;33471;52.104;1.318;2022-09-09T06:08:52;99855.76;;;16.19;61.06
47706;BME280;33471;52.104;1.318;2022-09-09T06:11:20;99857.67;;;14.86;62.97
47706;BME280;33471;52.104;1.318;2022-09-09T06:13:48;99859.78;;;14.83;65.26
47706;BME280;33471;52.104;1.318;2022-09-09T06:16:17;99859.17;;;14.33;65.70
47706;BME280;33471;52.104;1.318;2022-09-09T06:18:45;99855.86;;;16.45;60.50
47706;BME280;33471;52.104;1.318;2022-09-09T06:21:16;99859.57;;;16.22;60.95
47706;BME280;33471;52.104;1.318;2022-09-09T06:23:44;99862.83;;;16.13;61.39
47706;BME280;33471;52.104;1.318;2022-09-09T06:26:14;99865.54;;;15.34;62.88
47706;BME280;33471;52.104;1.318;2022-09-09T06:28:42;99864.68;;;15.95;61.99
47706;BME280;33471;52.104;1.318;2022-09-09T06:31:11;99867.15;;;15.74;61.95
47706;BME280;33471;52.104;1.318;2022-09-09T06:33:40;99868.13;;;16.94;59.89
47706;BME280;33471;52.104;1.318;2022-09-09T06:36:11;99873.74;;;16.28;61.11
47706;BME280;33471;52.104;1.318;2022-09-09T06:38:38;99877.01;;;16.90;59.89
47706;BME280;33471;52.104;1.318;2022-09-09T06:41:06;99880.40;;;16.97;59.54
47706;BME280;33471;52.104;1.318;2022-09-09T06:43:33;99882.91;;;17.33;57.82
47706;BME280;33471;52.104;1.318;2022-09-09T06:46:02;99885.49;;;17.68;57.08
47706;BME280;33471;52.104;1.318;2022-09-09T06:48:30;99888.18;;;17.45;57.39
47706;BME280;33471;52.104;1.318;2022-09-09T06:51:01;99886.43;;;17.17;58.33
47706;BME280;33471;52.104;1.318;2022-09-09T06:53:29;99891.60;;;17.57;57.25
47706;BME280;33471;52.104;1.318;2022-09-09T06:55:56;99900.06;;;16.22;60.63
47706;BME280;33471;52.104;1.318;2022-09-09T06:58:24;99906.21;;;16.40;59.83
47706;BME280;33471;52.104;1.318;2022-09-09T07:00:51;99905.40;;;16.95;58.85
47706;BME280;33471;52.104;1.318;2022-09-09T07:03:19;99911.33;;;15.94;60.29
47706;BME280;33471;52.104;1.318;2022-09-09T07:05:54;99911.62;;;15.80;62.74
47706;BME280;33471;52.104;1.318;2022-09-09T07:08:21;99912.86;;;16.74;60.00
47706;BME280;33471;52.104;1.318;2022-09-09T07:10:48;99913.24;;;16.63;61.05
47706;BME280;33471;52.104;1.318;2022-09-09T07:13:16;99915.91;;;16.48;59.60
47706;BME280;33471;52.104;1.318;2022-09-09T07:15:44;99918.01;;;15.91;62.40
47706;BME280;33471;52.104;1.318;2022-09-09T07:18:11;99919.63;;;16.45;61.39
47706;BME280;33471;52.104;1.318;2022-09-09T07:20:38;99921.54;;;15.63;64.40
47706;BME280;33471;52.104;1.318;2022-09-09T07:23:04;99921.61;;;16.64;60.79
47706;BME280;33471;52.104;1.318;2022-09-09T07:25:32;99927.82;;;16.40;62.07
47706;BME280;33471;52.104;1.318;2022-09-09T07:28:04;99926.89;;;16.65;61.31
47706;BME280;33471;52.104;1.318;2022-09-09T07:30:31;99929.39;;;15.77;63.29
47706;BME280;33471;52.104;1.318;2022-09-09T07:32:58;99932.13;;;15.80;63.56
47706;BME280;33471;52.104;1.318;2022-09-09T07:35:26;99929.05;;;16.50;61.73
47706;BME280;33471;52.104;1.318;2022-09-09T07:37:52;99936.04;;;16.16;62.74
47706;BME280;33471;52.104;1.318;2022-09-09T07:40:19;99939.40;;;14.66;65.85
47706;BME280;33471;52.104;1.318;2022-09-09T07:42:46;99938.68;;;16.58;62.10
47706;BME280;33471;52.104;1.318;2022-09-09T07:45:14;99940.95;;;15.59;64.27
47706;BME280;33471;52.104;1.318;2022-09-09T07:47:42;99945.36;;;16.59;62.20
47706;BME280;33471;52.104;1.318;2022-09-09T07:50:10;99949.96;;;16.14;62.82
47706;BME280;33471;52.104;1.318;2022-09-09T07:52:38;99951.25;;;17.00;60.95
47706;BME280;33471;52.104;1.318;2022-09-09T07:55:05;99953.55;;;16.67;61.77
47706;BME280;33471;52.104;1.318;2022-09-09T07:57:33;99959.35;;;16.40;61.93
47706;BME280;33471;52.104;1.318;2022-09-09T08:00:00;99961.69;;;16.09;63.12
47706;BME280;33471;52.104;1.318;2022-09-09T08:02:27;99962.37;;;16.76;61.01
47706;BME280;33471;52.104;1.318;2022-09-09T08:04:54;99965.79;;;17.17;60.30
47706;BME280;33471;52.104;1.318;2022-09-09T08:07:21;99971.45;;;15.89;62.58
47706;BME280;33471;52.104;1.318;2022-09-09T08:09:49;99970.32;;;15.75;63.58
47706;BME280;33471;52.104;1.318;2022-09-09T08:12:16;99973.14;;;15.32;63.57
47706;BME280;33471;52.104;1.318;2022-09-09T08:14:43;99976.83;;;15.64;65.09
47706;BME280;33471;52.104;1.318;2022-09-09T08:17:11;99979.43;;;15.75;64.36
47706;BME280;33471;52.104;1.318;2022-09-09T08:19:38;99981.18;;;16.11;63.48
47706;BME280;33471;52.104;1.318;2022-09-09T08:22:06;99984.08;;;16.22;63.30
47706;BME280;33471;52.104;1.318;2022-09-09T08:24:33;99986.96;;;15.99;63.66
47706;BME280;33471;52.104;1.318;2022-09-09T08:27:00;99991.41;;;15.51;66.40
47706;BME280;33471;52.104;1.318;2022-09-09T08:29:27;99992.25;;;16.15;63.31
47706;BME280;33471;52.104;1.318;2022-09-09T08:31:56;99999.37;;;15.20;66.30
47706;BME280;33471;52.104;1.318;2022-09-09T08:34:24;99999.67;;;15.95;62.94
47706;BME280;33471;52.104;1.318;2022-09-09T08:36:52;99998.09;;;18.20;58.27
47706;BME280;33471;52.104;1.318;2022-09-09T08:39:21;99998.92;;;16.74;59.64
47706;BME280;33471;52.104;1.318;2022-09-09T08:42:58;99995.41;;;18.45;58.72
47706;BME280;33471;52.104;1.318;2022-09-09T08:45:34;99998.60;;;15.90;62.85
47706;BME280;33471;52.104;1.318;2022-09-09T08:48:13;99999.32;;;17.76;59.16
47706;BME280;33471;52.104;1.318;2022-09-09T08:50:44;100003.49;;;16.01;63.37
47706;BME280;33471;52.104;1.318;2022-09-09T08:53:17;100007.81;;;15.68;64.62
47706;BME280;33471;52.104;1.318;2022-09-09T08:55:48;100011.63;;;15.98;65.08
47706;BME280;33471;52.104;1.318;2022-09-09T08:58:19;100013.96;;;14.68;66.04
47706;BME280;33471;52.104;1.318;2022-09-09T09:01:02;100020.96;;;15.74;64.40
47706;BME280;33471;52.104;1.318;2022-09-09T09:03:41;100021.19;;;16.21;63.25
47706;BME280;33471;52.104;1.318;2022-09-09T09:06:21;100024.63;;;16.09;63.57
47706;BME280;33471;52.104;1.318;2022-09-09T09:08:56;100032.16;;;15.22;66.56
47706;BME280;33471;52.104;1.318;2022-09-09T09:11:30;100027.11;;;15.72;65.01
47706;BME280;33471;52.104;1.318;2022-09-09T09:14:03;100036.34;;;15.74;65.88
47706;BME280;33471;52.104;1.318;2022-09-09T09:16:34;100038.15;;;15.63;65.12
47706;BME280;33471;52.104;1.318;2022-09-09T09:19:08;100037.89;;;16.16;65.01
47706;BME280;33471;52.104;1.318;2022-09-09T09:21:42;100042.72;;;15.52;66.36
47706;BME280;33471;52.104;1.318;2022-09-09T09:24:17;100037.50;;;16.09;64.20
47706;BME280;33471;52.104;1.318;2022-09-09T09:26:45;100046.33;;;16.00;64.93
47706;BME280;33471;52.104;1.318;2022-09-09T09:29:15;100050.71;;;16.62;62.47
47706;BME280;33471;52.104;1.318;2022-09-09T09:31:46;100056.18;;;17.08;61.96
47706;BME280;33471;52.104;1.318;2022-09-09T09:34:15;100062.73;;;16.12;63.14
47706;BME280;33471;52.104;1.318;2022-09-09T09:36:44;100067.84;;;15.59;65.19
47706;BME280;33471;52.104;1.318;2022-09-09T09:39:23;100064.86;;;16.93;61.59
47706;BME280;33471;52.104;1.318;2022-09-09T09:41:51;100075.79;;;16.66;61.44
47706;BME280;33471;52.104;1.318;2022-09-09T09:44:25;100077.13;;;16.22;61.43
47706;BME280;33471;52.104;1.318;2022-09-09T09:47:05;100078.41;;;16.09;62.99
47706;BME280;33471;52.104;1.318;2022-09-09T09:49:32;100082.00;;;16.55;62.21
47706;BME280;33471;52.104;1.318;2022-09-09T09:52:01;100084.34;;;16.40;62.53
47706;BME280;33471;52.104;1.318;2022-09-09T09:54:30;100087.45;;;17.41;59.52
47706;BME280;33471;52.104;1.318;2022-09-09T09:57:09;100088.45;;;16.24;62.18
47706;BME280;33471;52.104;1.318;2022-09-09T09:59:38;100089.81;;;16.24;62.42
47706;BME280;33471;52.104;1.318;2022-09-09T10:02:15;100091.50;;;17.01;61.43
47706;BME280;33471;52.104;1.318;2022-09-09T10:04:42;100095.05;;;16.71;60.72
47706;BME280;33471;52.104;1.318;2022-09-09T10:07:11;100096.59;;;17.85;57.80
47706;BME280;33471;52.104;1.318;2022-09-09T10:09:38;100097.51;;;16.96;60.59
47706;BME280;33471;52.104;1.318;2022-09-09T10:12:18;100097.79;;;17.32;58.83
47706;BME280;33471;52.104;1.318;2022-09-09T10:15:00;100094.20;;;18.21;56.27
47706;BME280;33471;52.104;1.318;2022-09-09T10:17:35;100095.46;;;17.46;56.98
47706;BME280;33471;52.104;1.318;2022-09-09T10:20:19;100098.98;;;17.17;59.12
47706;BME280;33471;52.104;1.318;2022-09-09T10:22:54;100102.71;;;16.75;59.17
47706;BME280;33471;52.104;1.318;2022-09-09T10:25:36;100107.46;;;17.11;58.47
47706;BME280;33471;52.104;1.318;2022-09-09T10:28:21;100107.69;;;16.93;59.09
47706;BME280;33471;52.104;1.318;2022-09-09T10:31:01;100111.35;;;17.82;57.24
47706;BME280;33471;52.104;1.318;2022-09-09T10:33:41;100109.18;;;17.82;56.48
47706;BME280;33471;52.104;1.318;2022-09-09T10:36:16;100121.66;;;17.61;57.33
47706;BME280;33471;52.104;1.318;2022-09-09T10:38:46;100120.00;;;18.18;56.39
47706;BME280;33471;52.104;1.318;2022-09-09T10:41:18;100122.54;;;17.40;58.20
47706;BME280;33471;52.104;1.318;2022-09-09T10:44:15;100126.20;;;17.17;59.22
47706;BME280;33471;52.104;1.318;2022-09-09T10:46:56;100130.94;;;17.70;57.04
47706;BME280;33471;52.104;1.318;2022-09-09T10:49:48;100128.12;;;16.84;59.50
47706;BME280;33471;52.104;1.318;2022-09-09T10:52:26;100127.48;;;16.82;58.42
47706;BME280;33471;52.104;1.318;2022-09-09T10:54:59;100130.47;;;17.30;57.70
47706;BME280;33471;52.104;1.318;2022-09-09T10:57:33;100126.65;;;17.37;58.66
47706;BME280;33471;52.104;1.318;2022-09-09T11:00:06;100125.08;;;18.23;55.47
47706;BME280;33471;52.104;1.318;2022-09-09T11:02:34;100127.60;;;18.36;53.95
47706;BME280;33471;52.104;1.318;2022-09-09T11:05:05;100142.78;;;17.94;56.04
47706;BME280;33471;52.104;1.318;2022-09-09T11:07:37;100156.69;;;15.67;63.23
47706;BME280;33471;52.104;1.318;2022-09-09T11:10:18;100162.01;;;15.64;65.17
47706;BME280;33471;52.104;1.318;2022-09-09T11:12:51;100156.77;;;15.78;64.65
47706;BME280;33471;52.104;1.318;2022-09-09T11:15:23;100161.04;;;16.14;64.69
47706;BME280;33471;52.104;1.318;2022-09-09T11:17:59;100162.38;;;15.70;65.99
47706;BME280;33471;52.104;1.318;2022-09-09T11:20:29;100157.14;;;14.79;68.48
47706;BME280;33471;52.104;1.318;2022-09-09T11:23:00;100157.25;;;15.30;69.54
47706;BME280;33471;52.104;1.318;2022-09-09T11:25:32;100162.50;;;15.82;67.05
47706;BME280;33471;52.104;1.318;2022-09-09T11:28:23;100162.52;;;15.63;66.49
47706;BME280;33471;52.104;1.318;2022-09-09T11:31:02;100163.36;;;16.21;65.05
47706;BME280;33471;52.104;1.318;2022-09-09T11:33:50;100174.58;;;15.86;65.65
47706;BME280;33471;52.104;1.318;2022-09-09T11:36:35;100169.68;;;15.96;62.72
47706;BME280;33471;52.104;1.318;2022-09-09T11:39:23;100174.86;;;16.40;64.52
47706;BME280;33471;52.104;1.318;2022-09-09T11:41:55;100177.56;;;16.40;64.70
47706;BME280;33471;52.104;1.318;2022-09-09T11:44:32;100175.10;;;16.98;61.92
47706;BME280;33471;52.104;1.318;2022-09-09T11:46:59;100182.97;;;17.05;61.74
47706;BME280;33471;52.104;1.318;2022-09-09T11:49:28;100182.75;;;17.78;60.20
47706;BME280;33471;52.104;1.318;2022-09-09T11:51:56;100182.96;;;17.95;59.43
47706;BME280;33471;52.104;1.318;2022-09-09T11:54:30;100182.62;;;17.25;59.57
47706;BME280;33471;52.104;1.318;2022-09-09T11:56:57;100186.06;;;16.41;63.35
47706;BME280;33471;52.104;1.318;2022-09-09T11:59:27;100182.11;;;18.04;59.48
47706;BME280;33471;52.104;1.318;2022-09-09T12:01:57;100181.30;;;17.98;58.93
47706;BME280;33471;52.104;1.318;2022-09-09T12:04:49;100179.04;;;17.27;60.29
47706;BME280;33471;52.104;1.318;2022-09-09T12:07:30;100188.07;;;17.89;57.91
47706;BME280;33471;52.104;1.318;2022-09-09T12:10:02;100189.00;;;16.97;60.65
47706;BME280;33471;52.104;1.318;2022-09-09T12:12:32;100190.94;;;17.75;58.97
47706;BME280;33471;52.104;1.318;2022-09-09T12:15:16;100190.58;;;17.90;57.59
47706;BME280;33471;52.104;1.318;2022-09-09T12:17:45;100187.53;;;17.63;58.44
47706;BME280;33471;52.104;1.318;2022-09-09T12:20:15;100185.45;;;17.36;59.19
47706;BME280;33471;52.104;1.318;2022-09-09T12:22:53;100188.22;;;18.24;59.14
47706;BME280;33471;52.104;1.318;2022-09-09T12:25:32;100198.24;;;18.21;57.07
47706;BME280;33471;52.104;1.318;2022-09-09T12:28:08;100194.53;;;17.78;56.74
47706;BME280;33471;52.104;1.318;2022-09-09T12:30:43;100200.83;;;17.36;59.01
47706;BME280;33471;52.104;1.318;2022-09-09T12:33:18;100202.20;;;17.30;57.44
47706;BME280;33471;52.104;1.318;2022-09-09T12:35:49;100202.35;;;17.82;56.58
47706;BME280;33471;52.104;1.318;2022-09-09T12:38:26;100201.18;;;16.83;56.79
47706;BME280;33471;52.104;1.318;2022-09-09T12:40:57;100201.21;;;17.76;56.75
47706;BME280;33471;52.104;1.318;2022-09-09T12:43:26;100202.42;;;17.39;55.75
47706;BME280;33471;52.104;1.318;2022-09-09T12:45:56;100200.39;;;16.88;59.00
47706;BME280;33471;52.104;1.318;2022-09-09T12:48:30;100202.66;;;17.71;56.81
47706;BME280;33471;52.104;1.318;2022-09-09T12:50:58;100197.98;;;17.20;56.75
47706;BME280;33471;52.104;1.318;2022-09-09T12:53:29;100201.59;;;17.21;56.66
47706;BME280;33471;52.104;1.318;2022-09-09T12:55:59;100203.56;;;17.91;56.09
47706;BME280;33471;52.104;1.318;2022-09-09T12:58:29;100198.81;;;17.31;56.11
47706;BME280;33471;52.104;1.318;2022-09-09T13:00:56;100199.15;;;17.11;58.37
47706;BME280;33471;52.104;1.318;2022-09-09T13:03:24;100197.71;;;17.64;55.86
47706;BME280;33471;52.104;1.318;2022-09-09T13:05:52;100196.92;;;18.75;52.29
47706;BME280;33471;52.104;1.318;2022-09-09T13:08:20;100190.18;;;18.75;50.85
47706;BME280;33471;52.104;1.318;2022-09-09T13:10:50;100197.66;;;18.15;53.28
47706;BME280;33471;52.104;1.318;2022-09-09T13:13:21;100191.55;;;19.02;50.04
47706;BME280;33471;52.104;1.318;2022-09-09T13:15:50;100194.89;;;20.23;48.95
47706;BME280;33471;52.104;1.318;2022-09-09T13:18:22;100196.79;;;19.18;48.26
47706;BME280;33471;52.104;1.318;2022-09-09T13:20:51;100199.62;;;19.13;49.45